KAIZ/AIZ METAR and TAF weather

Enter ICAO airport designator
Station Type Date Time Source
KAIZ METAR 2020/09/22 06:56 UTC NOAA

KAIZ 220656Z AUTO 00000KT 10SM CLR 14/13 A3021 RMK AO2 SLP224 T01440133


Station Type Date Time Source
KAIZ Decoded METAR 2020/09/22 06:56 UTC NOAA

Kaiser Lake Ozark, Lee C Fine Memorial Airport, MO, United States (KAIZ) 38-06N 092-33W
Sep 22, 2020 - 02:56 AM EDT / 2020.09.22 0656 UTC
Wind: Calm:0
Visibility: 10 mile(s):0
Sky conditions: clear
Temperature: 57.9 F (14.4 C)
Dew Point: 55.9 F (13.3 C)
Relative Humidity: 93%
Pressure (altimeter): 30.21 in. Hg (1023 hPa)
ob: KAIZ 220656Z AUTO 00000KT 10SM CLR 14/13 A3021 RMK AO2 SLP224 T01440133
cycle: 7

Station Type Date Time Source
KAIZ TAF UTC NOAA

Error!

Example: see airport list